Time;durP1;ratioP1;P1;durP2;ratioP2;P2;SDS_P1;SDS_P2;PMS_P1;PMS_P2;Temp;Humidity;BMP_temperature;BMP_pressure;BME280_temperature;BME280_humidity;BME280_pressure;Samples;Min_cycle;Max_cycle;Signal;HPM_P1;HPM_P2
2022/09/12 00:01:13;;;;;;;3.58;1.63;;;;;;;19.25;58.81;101398.78;5033871;28;98256;-66
2022/09/12 00:03:41;;;;;;;2.58;1.92;;;;;;;19.11;60.26;101402.28;5033523;28;98071;-66
2022/09/12 00:06:12;;;;;;;3.40;1.88;;;;;;;19.13;60.14;101402.22;5031981;27;97228;-66
2022/09/12 00:08:38;;;;;;;2.97;1.48;;;;;;;19.27;58.60;101399.56;5033843;28;99316;-66
2022/09/12 00:11:10;;;;;;;3.88;1.70;;;;;;;19.20;58.94;101395.53;5032195;28;99714;-66
2022/09/12 00:13:37;;;;;;;1.92;1.83;;;;;;;19.21;58.73;101398.13;5034059;27;99189;-66
2022/09/12 00:16:05;;;;;;;3.55;1.77;;;;;;;19.30;58.77;101402.03;5032698;27;96882;-66
2022/09/12 00:18:34;;;;;;;4.35;1.60;;;;;;;19.11;59.13;101392.44;5033011;28;98944;-66
2022/09/12 00:21:05;;;;;;;2.70;1.80;;;;;;;19.23;58.83;101393.50;5032824;27;98810;-66
2022/09/12 00:23:32;;;;;;;7.25;2.40;;;;;;;19.21;59.34;101392.75;5033400;27;96698;-67
2022/09/12 00:25:59;;;;;;;1.92;1.65;;;;;;;19.39;59.04;101391.63;5030329;27;96834;-65
2022/09/12 00:28:26;;;;;;;3.05;2.22;;;;;;;19.49;58.39;101398.16;5031411;28;99123;-65
2022/09/12 00:30:52;;;;;;;2.42;2.08;;;;;;;19.31;59.33;101395.72;5031450;28;98880;-65
2022/09/12 00:33:21;;;;;;;2.53;2.20;;;;;;;19.33;58.51;101391.13;5029537;28;96941;-65
2022/09/12 00:35:51;;;;;;;3.00;2.20;;;;;;;19.00;59.79;101391.38;5031912;28;98463;-65
2022/09/12 00:38:21;;;;;;;5.70;2.15;;;;;;;19.16;59.18;101394.84;5025079;28;99019;-64
2022/09/12 00:40:48;;;;;;;4.10;2.17;;;;;;;18.92;60.03;101385.59;5031422;28;98862;-64
2022/09/12 00:43:33;;;;;;;3.67;2.28;;;;;;;18.81;60.22;101391.63;5029102;28;97250;-65
2022/09/12 00:46:04;;;;;;;3.05;1.80;;;;;;;18.74;60.97;101395.59;5030231;28;96955;-65
2022/09/12 00:48:34;;;;;;;3.03;2.45;;;;;;;18.72;60.77;101394.81;5029355;28;98935;-65
2022/09/12 00:51:03;;;;;;;2.70;2.10;;;;;;;18.62;61.34;101393.66;5030865;28;98868;-66
2022/09/12 00:53:31;;;;;;;3.60;1.90;;;;;;;18.78;61.12;101398.94;5033404;27;96952;-66
2022/09/12 00:55:58;;;;;;;3.72;1.90;;;;;;;18.62;61.56;101390.97;5031312;27;96766;-65
2022/09/12 00:58:28;;;;;;;2.30;1.73;;;;;;;18.43;62.37;101392.97;5032832;28;98123;-66
2022/09/12 01:00:56;;;;;;;3.60;2.08;;;;;;;18.52;62.14;101395.97;5031878;28;100361;-66
2022/09/12 01:03:24;;;;;;;3.45;2.40;;;;;;;18.68;61.43;101391.47;5029954;27;96794;-66
2022/09/12 01:05:59;;;;;;;5.40;2.50;;;;;;;18.47;62.21;101399.88;5031903;27;96897;-65
2022/09/12 01:08:27;;;;;;;2.70;2.08;;;;;;;18.62;61.56;101391.84;5028765;28;98966;-65
2022/09/12 01:10:56;;;;;;;3.65;2.00;;;;;;;18.37;62.15;101402.22;5032218;27;98774;-65
2022/09/12 01:13:24;;;;;;;3.38;2.50;;;;;;;18.24;63.00;101394.03;5027201;27;98639;-65
2022/09/12 01:15:51;;;;;;;5.10;2.60;;;;;;;18.41;62.26;101393.06;5027970;27;96981;-66
2022/09/12 01:18:23;;;;;;;4.95;2.70;;;;;;;18.52;61.57;101395.97;5039203;27;99155;-65
2022/09/12 01:21:24;;;;;;;4.22;2.08;;;;;;;18.65;61.29;101383.63;5028078;28;98959;-65
2022/09/12 01:24:23;;;;;;;4.63;2.47;;;;;;;18.55;61.46;101387.81;5022556;27;97574;-66
2022/09/12 01:27:13;;;;;;;3.90;3.03;;;;;;;18.49;61.57;101390.81;5031049;27;96936;-66
2022/09/12 01:30:05;;;;;;;4.95;2.60;;;;;;;18.53;61.59;101397.69;5030604;28;98971;-66
2022/09/12 01:32:45;;;;;;;5.32;2.60;;;;;;;18.48;62.00;101399.78;5027339;27;99369;-66
2022/09/12 01:35:19;;;;;;;4.28;2.45;;;;;;;18.62;61.50;101393.66;5033061;28;96696;-65
2022/09/12 01:37:54;;;;;;;2.90;2.55;;;;;;;18.57;61.51;101388.59;5031106;27;97638;-65
2022/09/12 01:40:27;;;;;;;9.95;2.58;;;;;;;18.69;61.11;101395.88;5028221;28;99023;-66
2022/09/12 01:43:02;;;;;;;4.22;2.30;;;;;;;18.56;61.24;101396.69;5032264;28;98862;-66
2022/09/12 01:45:35;;;;;;;4.03;2.40;;;;;;;18.22;62.44;101387.91;5031270;28;96826;-66
2022/09/12 01:48:14;;;;;;;6.72;3.20;;;;;;;18.28;62.52;101386.69;5030360;28;98641;-68
2022/09/12 01:50:51;;;;;;;3.00;2.70;;;;;;;18.11;63.00;101385.00;5030663;28;98186;-66
2022/09/12 01:53:20;;;;;;;;;;;;;;;18.23;62.82;101378.94;5027879;28;99363;-66
2022/09/12 01:55:50;;;;;;;5.28;2.53;;;;;;;18.14;63.03;101379.44;5030315;28;96833;-65
2022/09/12 01:58:23;;;;;;;4.07;2.67;;;;;;;18.21;62.82;101380.81;5027752;28;98609;-65
2022/09/12 02:00:54;;;;;;;5.47;2.95;;;;;;;18.08;63.35;101386.94;5031372;27;96977;-66
2022/09/12 02:03:28;;;;;;;4.53;3.25;;;;;;;18.23;63.04;101383.41;5029839;28;98853;-66
2022/09/12 02:05:59;;;;;;;4.03;2.50;;;;;;;18.06;63.54;101380.81;5031547;28;96794;-66
2022/09/12 02:08:32;;;;;;;3.92;2.58;;;;;;;18.03;63.39;101384.56;5030530;28;96952;-65
2022/09/12 02:11:04;;;;;;;5.32;2.92;;;;;;;18.18;62.82;101385.50;5031558;27;99199;-66
2022/09/12 02:13:35;;;;;;;3.97;3.28;;;;;;;17.98;63.49;101383.09;5030950;28;99808;-65
2022/09/12 02:16:05;;;;;;;4.97;3.20;;;;;;;18.13;62.95;101388.41;5032599;28;97554;-68
2022/09/12 02:18:36;;;;;;;8.20;2.90;;;;;;;18.09;63.02;101380.66;5030757;27;96873;-66
2022/09/12 02:21:05;;;;;;;5.07;2.50;;;;;;;18.14;62.81;101383.94;5028697;27;99142;-66
2022/09/12 02:23:34;;;;;;;4.55;2.70;;;;;;;18.04;63.28;101386.28;5031417;28;98956;-66
2022/09/12 02:26:08;;;;;;;4.32;2.95;;;;;;;18.03;63.43;101384.56;5030997;28;97425;-65
2022/09/12 02:28:38;;;;;;;6.35;3.28;;;;;;;17.86;63.91;101385.47;5027642;28;96868;-67
2022/09/12 02:31:13;;;;;;;3.83;2.80;;;;;;;17.82;63.77;101386.59;5028902;28;97804;-65
2022/09/12 02:33:49;;;;;;;7.38;3.55;;;;;;;17.65;65.02;101377.81;5029455;28;97461;-65
2022/09/12 02:36:28;;;;;;;9.75;3.40;;;;;;;17.81;64.28;101378.66;5026997;28;96843;-66
2022/09/12 02:38:55;;;;;;;6.80;3.05;;;;;;;17.99;63.40;101382.13;5031998;28;97124;-66
2022/09/12 02:41:22;;;;;;;6.55;3.33;;;;;;;18.00;63.40;101376.69;5031131;28;98857;-68
2022/09/12 02:43:51;;;;;;;4.78;2.97;;;;;;;18.14;62.90;101378.59;5031668;27;101288;-65
2022/09/12 02:46:22;;;;;;;5.05;2.97;;;;;;;17.98;63.12;101378.59;5028429;28;96833;-66
2022/09/12 02:48:49;;;;;;;5.03;3.40;;;;;;;18.09;62.92;101384.19;5031973;28;96687;-66
2022/09/12 02:51:17;;;;;;;5.97;3.40;;;;;;;18.20;62.52;101376.41;5031444;27;99642;-66
2022/09/12 02:53:44;;;;;;;6.13;2.97;;;;;;;18.25;62.24;101384.16;5031785;27;99437;-66
2022/09/12 02:56:21;;;;;;;5.70;3.42;;;;;;;18.19;62.54;101382.72;5029707;28;96775;-66
2022/09/12 02:58:48;;;;;;;3.63;3.00;;;;;;;17.86;63.49;101382.81;5031565;27;97137;-65
2022/09/12 03:01:26;;;;;;;3.22;2.92;;;;;;;17.75;63.82;101381.69;5032354;27;99059;-65
2022/09/12 03:04:13;;;;;;;3.78;3.47;;;;;;;18.10;62.96;101387.75;5029211;28;98030;-66
2022/09/12 03:06:52;;;;;;;4.57;2.92;;;;;;;18.04;62.88;101390.75;5029701;28;97426;-66
2022/09/12 03:09:30;;;;;;;9.90;3.40;;;;;;;17.91;63.35;101378.09;5029144;28;96809;-66
2022/09/12 03:12:09;;;;;;;6.88;3.08;;;;;;;17.82;63.55;101381.25;5030534;28;98911;-66
2022/09/12 03:14:52;;;;;;;3.97;2.83;;;;;;;17.96;63.10;101387.66;5029792;28;99183;-65
2022/09/12 03:17:26;;;;;;;6.03;3.72;;;;;;;17.82;63.46;101377.72;5027330;28;97010;-65
2022/09/12 03:20:01;;;;;;;10.25;3.75;;;;;;;17.76;63.68;101384.28;5027476;28;97208;-65
2022/09/12 03:22:38;;;;;;;5.55;3.38;;;;;;;17.79;63.14;101384.09;5031382;27;97694;-66
2022/09/12 03:25:15;;;;;;;3.92;3.05;;;;;;;17.99;62.98;101382.13;5029842;28;101617;-65
2022/09/12 03:27:47;;;;;;;3.15;2.85;;;;;;;17.69;63.69;101380.22;5028375;28;96750;-64
2022/09/12 03:30:13;;;;;;;4.57;3.10;;;;;;;17.72;63.67;101384.53;5030879;28;96957;-65
2022/09/12 03:32:44;;;;;;;5.68;2.85;;;;;;;17.84;63.15;101376.69;5029219;28;99289;-64
2022/09/12 03:35:14;;;;;;;3.50;3.00;;;;;;;17.74;63.16;101379.94;5030440;27;98696;-66
2022/09/12 03:37:41;;;;;;;4.47;3.25;;;;;;;17.78;62.68;101382.38;5030576;28;97014;-65
2022/09/12 03:40:09;;;;;;;5.93;3.90;;;;;;;17.89;62.45;101390.66;5029510;27;97843;-65
2022/09/12 03:42:37;;;;;;;6.60;3.22;;;;;;;17.88;62.17;101390.75;5030028;28;99011;-65
2022/09/12 03:45:04;;;;;;;3.47;3.08;;;;;;;17.78;62.67;101381.53;5029519;28;99573;-65
2022/09/12 03:47:33;;;;;;;8.05;3.33;;;;;;;17.78;62.45;101382.38;5028982;28;96837;-65
2022/09/12 03:49:59;;;;;;;8.93;3.15;;;;;;;17.59;62.96;101380.78;5031505;27;98044;-66
2022/09/12 03:52:27;;;;;;;4.95;3.30;;;;;;;17.75;62.41;101382.53;5029963;28;100216;-66
2022/09/12 03:54:54;;;;;;;3.28;2.97;;;;;;;17.83;62.07;101387.47;5030661;27;99020;-65
2022/09/12 03:57:20;;;;;;;5.45;2.75;;;;;;;17.84;62.21;101395.41;5029425;28;97624;-65
2022/09/12 03:59:48;;;;;;;4.05;2.65;;;;;;;17.88;61.96;101399.63;5030301;27;96903;-65
2022/09/12 04:02:14;;;;;;;3.75;2.53;;;;;;;17.88;61.58;101402.31;5027239;27;98347;-65
2022/09/12 04:04:42;;;;;;;4.63;3.17;;;;;;;17.63;62.43;101401.94;5033552;27;99592;-65
2022/09/12 04:07:11;;;;;;;3.50;2.63;;;;;;;17.44;63.10;101401.16;5032422;28;96839;-69
2022/09/12 04:09:41;;;;;;;2.83;2.63;;;;;;;17.37;63.91;101397.97;5034181;27;97184;-66
2022/09/12 04:12:08;;;;;;;4.72;2.97;;;;;;;17.73;62.81;101399.59;5031804;28;99236;-65
2022/09/12 04:14:36;;;;;;;4.13;2.90;;;;;;;17.58;62.96;101395.09;5033839;28;99048;-67
2022/09/12 04:17:03;;;;;;;5.93;3.28;;;;;;;17.68;62.76;101393.66;5032830;27;97684;-66
2022/09/12 04:19:29;;;;;;;3.33;2.78;;;;;;;17.64;62.80;101390.31;5032802;27;97870;-65
2022/09/12 04:21:56;;;;;;;8.00;3.15;;;;;;;17.73;62.62;101389.78;5033529;28;97763;-65
2022/09/12 04:24:22;;;;;;;3.45;2.75;;;;;;;17.54;62.93;101391.69;5032218;28;98871;-65
2022/09/12 04:26:50;;;;;;;6.97;3.28;;;;;;;17.57;62.53;101390.69;5028832;27;97284;-65
2022/09/12 04:29:16;;;;;;;4.13;2.88;;;;;;;17.36;63.19;101390.88;5034174;27;96828;-65
2022/09/12 04:31:43;;;;;;;6.53;2.83;;;;;;;17.34;63.57;101395.44;5032056;28;100722;-66
2022/09/12 04:34:10;;;;;;;3.67;2.50;;;;;;;17.45;62.85;101386.88;5034187;27;99252;-65
2022/09/12 04:36:37;;;;;;;3.67;3.10;;;;;;;17.60;62.34;101388.69;5027787;28;96853;-66
2022/09/12 04:39:05;;;;;;;3.42;3.08;;;;;;;17.47;62.55;101393.84;5032935;28;96921;-66
2022/09/12 04:41:33;;;;;;;7.85;3.58;;;;;;;17.52;62.76;101396.28;5033083;28;98100;-65
2022/09/12 04:44:04;;;;;;;6.32;3.53;;;;;;;17.38;63.33;101391.69;5033276;27;99000;-65
2022/09/12 04:46:35;;;;;;;5.78;3.28;;;;;;;17.48;63.04;101400.91;5030889;28;97522;-66
2022/09/12 04:49:01;;;;;;;4.10;3.70;;;;;;;17.42;63.31;101395.91;5031901;28;96817;-66
2022/09/12 04:51:32;;;;;;;7.95;4.07;;;;;;;17.49;63.38;101393.75;5033061;28;101806;-68
2022/09/12 04:54:00;;;;;;;6.95;3.75;;;;;;;17.53;62.91;101389.97;5032258;28;99437;-66
2022/09/12 04:56:27;;;;;;;10.95;3.85;;;;;;;17.52;62.88;101397.13;5032200;28;96821;-66
2022/09/12 04:58:56;;;;;;;7.22;3.28;;;;;;;17.38;63.22;101393.47;5034187;28;96831;-65
2022/09/12 05:01:24;;;;;;;7.95;4.07;;;;;;;17.31;63.64;101389.41;5031536;28;98445;-65
2022/09/12 05:03:54;;;;;;;5.43;4.05;;;;;;;17.23;64.21;101388.94;5028930;28;102634;-67
2022/09/12 05:06:24;;;;;;;4.60;4.20;;;;;;;17.54;63.10;101391.69;5026856;28;98830;-65
2022/09/12 05:08:51;;;;;;;9.00;4.65;;;;;;;17.56;62.98;101395.16;5027097;28;96764;-66
2022/09/12 05:11:19;;;;;;;4.55;4.13;;;;;;;17.69;62.56;101390.91;5031703;27;98365;-66
2022/09/12 05:13:46;;;;;;;7.20;4.05;;;;;;;17.66;62.57;101393.72;5032088;28;99566;-66
2022/09/12 05:16:14;;;;;;;7.85;4.45;;;;;;;17.74;62.58;101393.31;5032805;27;96822;-66
2022/09/12 05:18:43;;;;;;;7.75;4.30;;;;;;;17.70;62.72;101395.31;5030070;28;96840;-65
2022/09/12 05:21:12;;;;;;;6.05;4.10;;;;;;;17.67;62.67;101395.47;5032419;28;99467;-65
2022/09/12 05:23:41;;;;;;;10.85;4.28;;;;;;;17.81;62.38;101400.91;5027303;28;98970;-65
2022/09/12 05:26:11;;;;;;;5.00;4.38;;;;;;;17.78;62.23;101403.78;5026300;28;96778;-67
2022/09/12 05:28:38;;;;;;;6.45;4.15;;;;;;;18.09;61.80;101391.38;5031875;27;97245;-67
2022/09/12 05:31:07;;;;;;;4.13;3.72;;;;;;;18.07;61.66;101403.94;5030908;27;98947;-67
2022/09/12 05:33:35;;;;;;;11.73;4.43;;;;;;;18.03;61.22;101397.06;5031225;28;99394;-67
2022/09/12 05:36:05;;;;;;;4.75;3.90;;;;;;;18.30;60.78;101408.88;5030514;27;96868;-65
2022/09/12 05:38:32;;;;;;;6.82;4.38;;;;;;;18.34;60.58;101410.41;5030540;27;96918;-66
2022/09/12 05:41:05;;;;;;;8.30;4.07;;;;;;;18.15;61.01;101418.63;5032475;28;102069;-66
2022/09/12 05:43:31;;;;;;;4.80;4.28;;;;;;;18.35;60.29;101412.13;5031992;28;98873;-65
2022/09/12 05:46:01;;;;;;;8.05;4.85;;;;;;;18.34;60.33;101418.44;5027901;28;97063;-66
2022/09/12 05:48:28;;;;;;;10.85;4.70;;;;;;;18.37;60.17;101420.94;5026017;27;96948;-66
2022/09/12 05:51:00;;;;;;;7.88;4.18;;;;;;;18.47;59.90;101419.47;5027551;27;99148;-67
2022/09/12 05:53:28;;;;;;;8.68;4.80;;;;;;;18.53;60.02;101421.78;5031163;28;99704;-66
2022/09/12 05:56:03;;;;;;;9.43;4.45;;;;;;;18.68;59.42;101418.25;5031087;27;96853;-65
2022/09/12 05:58:29;;;;;;;8.23;4.38;;;;;;;18.72;58.87;101418.91;5029479;28;96968;-66
2022/09/12 06:00:56;;;;;;;5.10;4.00;;;;;;;18.89;58.68;101426.84;5027344;27;97886;-66
2022/09/12 06:03:27;;;;;;;6.20;4.40;;;;;;;18.69;58.75;101430.69;5031876;28;99201;-66
2022/09/12 06:05:53;;;;;;;7.38;4.55;;;;;;;18.97;58.22;101429.06;5030343;28;96889;-66
2022/09/12 06:08:20;;;;;;;4.90;4.22;;;;;;;18.99;58.54;101427.13;5032960;27;96985;-66
2022/09/12 06:10:48;;;;;;;6.97;4.45;;;;;;;19.23;57.49;101431.00;5031679;28;100940;-65
2022/09/12 06:13:14;;;;;;;5.80;4.45;;;;;;;19.20;57.70;101431.22;5032721;28;100582;-65
2022/09/12 06:15:44;;;;;;;7.25;4.20;;;;;;;19.21;57.50;101430.25;5031402;27;96981;-66
2022/09/12 06:18:10;;;;;;;4.45;3.97;;;;;;;19.63;56.63;101437.50;5029758;28;96903;-66
2022/09/12 06:20:37;;;;;;;7.50;5.13;;;;;;;19.35;56.87;101435.66;5031132;27;98911;-66
2022/09/12 06:23:03;;;;;;;7.45;4.30;;;;;;;19.45;56.79;101441.28;5031425;27;99272;-65
2022/09/12 06:25:30;;;;;;;6.15;4.45;;;;;;;19.52;56.85;101436.44;5029599;27;97424;-66
2022/09/12 06:27:57;;;;;;;6.03;4.90;;;;;;;19.45;57.01;101435.94;5032463;28;96946;-66
2022/09/12 06:30:24;;;;;;;5.25;4.18;;;;;;;19.67;56.78;101446.22;5027156;28;98402;-66
2022/09/12 06:32:50;;;;;;;14.10;5.25;;;;;;;19.91;55.66;101447.38;5028757;27;97746;-66
2022/09/12 06:35:17;;;;;;;6.28;4.70;;;;;;;19.64;56.54;101451.78;5032048;27;96679;-66
2022/09/12 06:37:44;;;;;;;7.38;4.82;;;;;;;19.86;56.13;101450.34;5026486;27;97292;-67
2022/09/12 06:40:16;;;;;;;8.32;4.72;;;;;;;20.00;55.53;101453.97;5026546;27;99194;-66
2022/09/12 06:42:43;;;;;;;7.78;5.38;;;;;;;20.41;54.70;101460.25;5026426;28;98883;-65
2022/09/12 06:45:11;;;;;;;9.45;5.82;;;;;;;20.71;53.61;101462.75;5027412;27;98182;-65
2022/09/12 06:47:43;;;;;;;11.27;6.00;;;;;;;20.85;53.43;101454.63;5029651;27;97475;-66
2022/09/12 06:50:10;;;;;;;8.50;6.43;;;;;;;20.96;52.83;101453.91;5029872;27;101361;-66
2022/09/12 06:52:43;;;;;;;8.60;5.97;;;;;;;21.07;52.94;101460.25;5027289;28;99091;-68
2022/09/12 06:55:10;;;;;;;10.05;5.47;;;;;;;20.87;52.79;101457.22;5027601;27;97216;-67
2022/09/12 06:57:40;;;;;;;12.93;6.75;;;;;;;21.14;52.45;101449.94;5029904;28;97347;-66
2022/09/12 07:00:09;;;;;;;10.73;6.55;;;;;;;20.91;52.55;101450.66;5028260;27;98880;-66
2022/09/12 07:02:40;;;;;;;10.32;5.88;;;;;;;21.24;52.46;101444.84;5027839;27;100569;-67
2022/09/12 07:05:12;;;;;;;14.43;6.43;;;;;;;21.46;51.81;101443.22;5026634;27;97273;-66
2022/09/12 07:07:50;;;;;;;9.88;5.63;;;;;;;21.55;51.70;101432.81;5029602;28;97515;-66
2022/09/12 07:10:17;;;;;;;12.32;4.97;;;;;;;21.06;52.23;101438.88;5028670;28;99266;-68
2022/09/12 07:12:46;;;;;;;9.82;5.65;;;;;;;21.18;52.22;101437.22;5028989;28;97854;-68
2022/09/12 07:15:15;;;;;;;11.88;5.50;;;;;;;21.07;52.62;101435.22;5026695;27;96907;-69
2022/09/12 07:17:42;;;;;;;15.75;5.57;;;;;;;20.88;53.22;101432.91;5029113;27;97788;-68
2022/09/12 07:20:09;;;;;;;12.93;5.57;;;;;;;20.96;53.25;101443.16;5028058;27;99334;-69
2022/09/12 07:22:36;;;;;;;10.18;5.53;;;;;;;21.21;52.21;101445.03;5026828;27;98963;-68
2022/09/12 07:25:03;;;;;;;13.18;5.45;;;;;;;21.26;52.70;101437.56;5011766;27;97661;-68
2022/09/12 07:27:31;;;;;;;14.05;6.55;;;;;;;21.64;51.80;101440.25;5028517;27;96916;-68
2022/09/12 07:29:59;;;;;;;16.70;6.75;;;;;;;21.50;51.75;101435.84;5028339;28;98943;-69
2022/09/12 07:32:29;;;;;;;8.93;5.65;;;;;;;21.93;50.89;101441.69;5028380;28;98960;-68
2022/09/12 07:34:57;;;;;;;10.60;7.15;;;;;;;22.02;50.63;101442.91;5025666;27;96786;-68
2022/09/12 07:37:24;;;;;;;11.52;7.35;;;;;;;22.02;50.78;101441.06;5027565;27;97595;-69
2022/09/12 07:39:58;;;;;;;10.45;6.93;;;;;;;22.19;50.32;101437.16;5032150;27;100123;-69
2022/09/12 07:42:25;;;;;;;10.45;6.53;;;;;;;22.39;50.01;101438.38;5031957;28;99033;-69
2022/09/12 07:44:56;;;;;;;10.05;6.40;;;;;;;21.59;51.71;101435.19;5029983;28;97203;-69
2022/09/12 07:47:31;;;;;;;11.80;6.28;;;;;;;22.05;51.01;101437.31;5029719;27;97673;-69
2022/09/12 07:49:58;;;;;;;8.52;5.65;;;;;;;22.46;49.95;101439.63;5028645;28;97889;-69
2022/09/12 07:52:25;;;;;;;10.55;5.55;;;;;;;22.45;49.78;101441.47;5030479;27;98109;-69
2022/09/12 07:54:51;;;;;;;11.20;5.13;;;;;;;22.64;49.13;101439.13;5023634;27;97420;-69
2022/09/12 07:57:18;;;;;;;15.20;5.45;;;;;;;22.84;48.82;101436.81;5029692;28;96863;-69
2022/09/12 07:59:53;;;;;;;8.15;4.90;;;;;;;22.93;48.75;101442.34;5031703;28;99940;-69
2022/09/12 08:02:24;;;;;;;8.82;4.88;;;;;;;23.27;47.77;101446.00;5022181;28;98979;-69
2022/09/12 08:05:03;;;;;;;8.25;3.90;;;;;;;22.97;48.47;101443.00;5024690;27;97160;-68
2022/09/12 08:07:31;;;;;;;7.22;4.60;;;;;;;23.40;47.43;101440.53;5024991;28;98084;-69
2022/09/12 08:10:01;;;;;;;5.95;4.20;;;;;;;23.59;45.67;101446.22;5031669;27;99430;-69
2022/09/12 08:12:31;;;;;;;9.55;5.45;;;;;;;;;;5032066;27;99258;-69
2022/09/12 08:14:57;;;;;;;7.28;3.95;;;;;;;23.66;45.98;101447.47;5024856;28;97370;-68
2022/09/12 08:17:27;;;;;;;4.88;2.95;;;;;;;23.63;45.77;101444.16;5028540;28;98402;-68
2022/09/12 08:19:54;;;;;;;4.82;3.33;;;;;;;23.56;45.25;101451.00;5029792;28;100408;-68
2022/09/12 08:22:24;;;;;;;7.05;3.50;;;;;;;22.56;47.66;101454.16;5031908;28;100168;-69
2022/09/12 08:24:52;;;;;;;5.82;3.13;;;;;;;22.45;48.01;101457.63;5028648;28;97705;-68
2022/09/12 08:27:23;;;;;;;4.60;2.67;;;;;;;22.43;48.05;101448.81;5031054;28;97321;-69
2022/09/12 08:30:01;;;;;;;4.22;2.35;;;;;;;22.41;48.08;101450.75;5028885;27;99929;-71
2022/09/12 08:32:28;;;;;;;3.80;2.17;;;;;;;22.60;47.73;101443.03;5028550;28;97734;-68
2022/09/12 08:35:01;;;;;;;3.67;1.55;;;;;;;22.75;46.27;101459.06;5026142;27;97463;-67
2022/09/12 08:37:33;;;;;;;3.35;1.98;;;;;;;22.33;47.62;101452.28;5023408;27;96830;-69
2022/09/12 08:40:07;;;;;;;4.70;2.50;;;;;;;22.30;48.23;101448.00;5028304;28;97838;-68
2022/09/12 08:42:48;;;;;;;3.83;2.40;;;;;;;23.04;46.72;101444.22;5030191;27;98900;-70
2022/09/12 08:45:19;;;;;;;5.22;2.30;;;;;;;23.43;45.95;101440.31;5026649;28;97186;-69
2022/09/12 08:47:48;;;;;;;4.85;2.00;;;;;;;23.32;45.65;101448.34;5022368;27;98438;-69
2022/09/12 08:50:22;;;;;;;6.53;1.95;;;;;;;23.24;45.46;101442.69;5029221;27;99355;-68
2022/09/12 08:53:02;;;;;;;3.53;2.75;;;;;;;23.29;45.15;101438.69;5031146;27;99253;-68
2022/09/12 08:55:48;;;;;;;2.60;1.30;;;;;;;23.21;44.65;101446.50;5027325;28;97080;-68
2022/09/12 08:58:21;;;;;;;6.90;1.42;;;;;;;23.53;44.23;101440.44;5026360;28;97295;-68
2022/09/12 09:01:05;;;;;;;3.63;1.30;;;;;;;23.82;43.68;101436.31;5030280;28;98648;-69
2022/09/12 09:04:01;;;;;;;1.92;0.85;;;;;;;23.84;41.52;101434.31;5026822;28;99546;-69
2022/09/12 09:06:53;;;;;;;4.20;1.00;;;;;;;24.17;40.80;101436.13;5024466;28;96838;-69
2022/09/12 09:09:29;;;;;;;2.35;1.27;;;;;;;23.96;41.23;101438.72;5030241;28;97942;-69
2022/09/12 09:12:08;;;;;;;7.88;1.38;;;;;;;23.72;41.24;101430.78;5028462;28;100304;-69
2022/09/12 09:14:53;;;;;;;5.43;1.13;;;;;;;24.34;41.15;101440.22;5028697;28;99171;-68
2022/09/12 09:17:26;;;;;;;3.03;1.90;;;;;;;23.78;41.52;101432.13;5026483;27;96851;-68
2022/09/12 09:20:03;;;;;;;6.53;1.58;;;;;;;23.98;40.82;101436.78;5025993;27;96732;-70
2022/09/12 09:22:43;;;;;;;3.38;1.40;;;;;;;23.92;41.05;101431.88;5026380;28;99051;-66
2022/09/12 09:25:19;;;;;;;2.75;1.42;;;;;;;24.33;40.59;101427.69;5022518;28;98963;-67
2022/09/12 09:27:57;;;;;;;2.95;1.60;;;;;;;24.33;40.10;101428.53;5031102;28;98657;-67
2022/09/12 09:30:24;;;;;;;3.05;1.25;;;;;;;24.59;38.88;101431.78;5028075;28;97747;-66
2022/09/12 09:32:59;;;;;;;3.40;1.40;;;;;;;23.92;39.34;101431.88;5030793;27;99094;-66
2022/09/12 09:35:42;;;;;;;5.97;1.60;;;;;;;24.37;38.85;101427.28;5027445;28;98827;-66
2022/09/12 09:38:23;;;;;;;4.57;1.50;;;;;;;24.89;38.45;101428.34;5029911;28;97319;-67
2022/09/12 09:41:05;;;;;;;4.80;1.90;;;;;;;24.79;37.75;101428.28;5030676;28;96779;-67
2022/09/12 09:43:37;;;;;;;4.32;1.77;;;;;;;25.26;37.42;101423.38;5030394;28;99587;-66
2022/09/12 09:46:05;;;;;;;3.83;1.70;;;;;;;25.07;37.28;101426.81;5026426;28;99221;-67
2022/09/12 09:48:35;;;;;;;2.95;1.55;;;;;;;24.74;37.88;101427.81;5027487;28;96785;-67
2022/09/12 09:51:09;;;;;;;5.47;2.05;;;;;;;25.03;37.91;101422.66;5025974;28;96886;-68
2022/09/12 09:53:45;;;;;;;4.68;1.70;;;;;;;25.39;37.80;101411.38;5024901;28;99266;-67
2022/09/12 09:56:19;;;;;;;4.53;1.98;;;;;;;25.27;37.96;101417.81;5025376;27;99305;-67
2022/09/12 09:58:52;;;;;;;7.43;2.42;;;;;;;24.09;39.37;101411.63;5027288;28;96785;-68
2022/09/12 10:01:19;;;;;;;8.98;5.13;;;;;;;24.13;39.62;101408.53;5026957;28;97507;-68
2022/09/12 10:03:53;;;;;;;5.57;2.17;;;;;;;24.62;37.68;101409.91;5022507;28;99326;-68
2022/09/12 10:06:26;;;;;;;6.22;2.00;;;;;;;24.88;35.93;101415.81;5025152;28;98788;-68
2022/09/12 10:09:17;;;;;;;5.30;1.92;;;;;;;24.31;37.36;101410.75;5028925;28;96922;-68
2022/09/12 10:11:44;;;;;;;4.28;1.73;;;;;;;24.70;37.05;101404.72;5027794;28;96849;-68
2022/09/12 10:14:31;;;;;;;8.75;2.47;;;;;;;24.39;37.14;101408.28;5028546;27;98914;-69
2022/09/12 10:16:59;;;;;;;6.30;1.92;;;;;;;24.47;37.40;101403.97;5027072;28;97421;-68
2022/09/12 10:19:38;;;;;;;2.42;1.40;;;;;;;24.53;36.94;101405.28;5028104;27;96820;-68
2022/09/12 10:22:15;;;;;;;4.38;1.40;;;;;;;24.48;36.69;101402.94;5027780;27;96855;-69
2022/09/12 10:24:47;;;;;;;4.90;2.17;;;;;;;24.74;37.04;101406.19;5024859;28;99262;-69
2022/09/12 10:27:20;;;;;;;7.03;2.83;;;;;;;24.83;36.74;101402.69;5028181;27;97685;-69
2022/09/12 10:30:00;;;;;;;7.35;1.80;;;;;;;24.91;36.52;101399.38;5026814;28;96892;-68
2022/09/12 10:32:35;;;;;;;4.15;1.50;;;;;;;24.86;36.52;101407.00;5024364;28;96859;-68
2022/09/12 10:35:07;;;;;;;2.05;1.33;;;;;;;24.60;36.66;101401.09;5022582;27;99448;-69
2022/09/12 10:37:36;;;;;;;4.65;1.85;;;;;;;25.16;36.04;101392.69;5027835;28;98695;-69
2022/09/12 10:40:08;;;;;;;3.15;1.02;;;;;;;25.18;35.76;101401.56;5018613;27;98778;-69
2022/09/12 10:42:49;;;;;;;2.05;1.00;;;;;;;25.22;34.74;101394.88;5026260;27;97191;-69
2022/09/12 10:45:27;;;;;;;2.20;0.90;;;;;;;25.19;34.32;101393.31;5020895;27;99231;-68
2022/09/12 10:47:58;;;;;;;2.67;1.25;;;;;;;25.73;32.98;101392.19;5022029;27;98761;-70
2022/09/12 10:50:44;;;;;;;2.22;0.75;;;;;;;25.98;33.27;101390.84;5025255;27;98306;-69
2022/09/12 10:53:24;;;;;;;3.83;0.77;;;;;;;25.59;33.91;101384.44;5028383;28;96988;-69
2022/09/12 10:56:08;;;;;;;1.77;1.27;;;;;;;25.52;34.15;101384.09;5017899;27;98934;-68
2022/09/12 10:59:01;;;;;;;1.27;1.10;;;;;;;24.87;35.52;101390.66;5025684;27;98849;-68
2022/09/12 11:01:42;;;;;;;2.58;0.80;;;;;;;24.96;35.87;101394.41;5025950;27;97539;-68
2022/09/12 11:04:29;;;;;;;4.85;0.82;;;;;;;25.42;35.06;101383.19;5024041;27;97224;-69
2022/09/12 11:07:30;;;;;;;11.98;1.60;;;;;;;25.67;34.45;101388.16;5027755;27;99404;-68
2022/09/12 11:10:23;;;;;;;2.78;0.70;;;;;;;26.04;33.55;101387.59;4984115;28;99574;-68
2022/09/12 11:12:59;;;;;;;1.38;0.80;;;;;;;25.74;33.65;101383.91;5025283;27;97444;-68
2022/09/12 11:15:59;;;;;;;2.45;0.80;;;;;;;25.88;33.50;101384.53;5029186;27;97959;-69
2022/09/12 11:19:04;;;;;;;0.75;0.68;;;;;;;25.03;34.98;101384.78;5014623;27;98950;-69
2022/09/12 11:21:43;;;;;;;0.75;0.43;;;;;;;25.17;34.60;101387.16;5030968;27;97765;-69
2022/09/12 11:24:29;;;;;;;0.70;0.57;;;;;;;25.46;34.79;101386.50;5026731;27;97315;-68
2022/09/12 11:27:07;;;;;;;1.73;0.95;;;;;;;25.13;35.16;101387.56;5024219;28;99293;-68
2022/09/12 11:29:54;;;;;;;1.23;0.55;;;;;;;24.95;35.71;101388.16;5032624;28;99334;-69
2022/09/12 11:32:51;;;;;;;2.50;0.88;;;;;;;24.68;36.03;101387.75;5028092;27;97549;-69
2022/09/12 11:35:24;;;;;;;;;;;;;;;25.17;34.75;101386.31;5014370;27;97259;-68
2022/09/12 11:38:07;;;;;;;1.52;0.70;;;;;;;25.24;35.62;101384.78;5022487;27;96842;-69
2022/09/12 11:40:41;;;;;;;3.03;1.10;;;;;;;25.07;35.59;101380.84;5029902;27;97880;-69
2022/09/12 11:43:16;;;;;;;3.58;1.58;;;;;;;24.98;35.36;101376.22;5029398;27;98802;-68
2022/09/12 11:45:46;;;;;;;2.40;0.67;;;;;;;25.39;34.28;101372.63;5029369;27;97445;-69
2022/09/12 11:48:34;;;;;;;2.42;0.70;;;;;;;25.54;34.09;101371.28;5030042;27;98740;-69